Time;durP1;ratioP1;P1;durP2;ratioP2;P2;SDS_P1;SDS_P2;PMS_P1;PMS_P2;Temp;Humidity;BMP_temperature;BMP_pressure;BME280_temperature;BME280_humidity;BME280_pressure;Samples;Min_cycle;Max_cycle;Signal;HPM_P1;HPM_P2
2023/03/16 00:01:34;;;;;;;;;;;;;;;24.67;46.91;95974.64;591248;240;66695;-65
2023/03/16 00:04:01;;;;;;;;;;;;;;;24.66;45.67;95973.04;591282;240;66794;-65
2023/03/16 00:06:29;;;;;;;;;;;;;;;24.67;46.78;95978.11;591299;240;65091;-65
2023/03/16 00:08:57;;;;;;;;;;;;;;;24.65;46.02;95974.16;591278;240;67255;-65
2023/03/16 00:11:26;;;;;;;;;;;;;;;24.65;44.46;95974.16;591262;240;66793;-65
2023/03/16 00:13:53;;;;;;;;;;;;;;;24.65;45.19;95982.22;591250;237;63056;-65
2023/03/16 00:16:21;;;;;;;;;;;;;;;24.64;44.83;95986.81;591267;240;67082;-65
2023/03/16 00:18:48;;;;;;;;;;;;;;;24.64;43.83;95980.66;591306;240;64656;-65
2023/03/16 00:21:16;;;;;;;;;;;;;;;24.63;44.84;95981.74;591305;240;62787;-65
2023/03/16 00:23:43;;;;;;;;;;;;;;;24.63;43.43;95979.05;591294;240;64470;-65
2023/03/16 00:26:11;;;;;;;;;;;;;;;24.62;44.12;95974.80;591273;240;64439;-65
2023/03/16 00:28:41;;;;;;;;;;;;;;;24.62;43.92;95988.23;591269;240;66421;-68
2023/03/16 00:31:13;;;;;;;;;;;;;;;24.61;45.21;95971.33;591318;240;67187;-68
2023/03/16 00:33:39;;;;;;;;;;;;;;;24.59;48.19;95974.33;591237;240;66550;-68
2023/03/16 00:36:10;;;;;;;;;;;;;;;24.59;47.16;95968.95;590861;237;65110;-68
2023/03/16 00:38:37;;;;;;;;;;;;;;;24.58;46.22;95975.45;588712;240;67619;-68
2023/03/16 00:41:05;;;;;;;;;;;;;;;24.59;44.87;95976.23;588736;241;66492;-68
2023/03/16 00:43:40;;;;;;;;;;;;;;;24.58;47.30;95974.63;588762;241;65063;-68
2023/03/16 00:46:10;;;;;;;;;;;;;;;24.58;45.63;95974.63;588811;241;66651;-68
2023/03/16 00:48:38;;;;;;;;;;;;;;;24.57;45.98;95979.22;588762;241;66581;-68
2023/03/16 00:51:07;;;;;;;;;;;;;;;24.56;45.27;95983.02;588787;241;66036;-68
2023/03/16 00:53:36;;;;;;;;;;;;;;;24.56;45.19;95977.66;588756;241;64794;-68
2023/03/16 00:56:03;;;;;;;;;;;;;;;24.55;46.32;95978.77;588762;241;67281;-68
2023/03/16 00:58:35;;;;;;;;;;;;;;;24.54;45.22;95974.48;588819;241;63060;-68
2023/03/16 01:01:06;;;;;;;;;;;;;;;24.55;46.42;95981.45;588795;241;67065;-68
2023/03/16 01:03:34;;;;;;;;;;;;;;;24.53;44.70;95978.30;588775;241;66839;-68
2023/03/16 01:06:09;;;;;;;;;;;;;;;24.53;47.93;95978.30;588739;241;65027;-68
2023/03/16 01:08:37;;;;;;;;;;;;;;;24.52;45.81;95982.07;588697;241;64679;-68
2023/03/16 01:11:06;;;;;;;;;;;;;;;24.51;46.92;95980.50;588749;241;64622;-68
2023/03/16 01:13:33;;;;;;;;;;;;;;;24.52;48.54;95987.44;588762;241;62773;-67
2023/03/16 01:16:02;;;;;;;;;;;;;;;24.51;45.87;95990.46;588781;241;64595;-67
2023/03/16 01:18:35;;;;;;;;;;;;;;;24.50;45.91;95995.05;588727;241;66841;-67
2023/03/16 01:21:03;;;;;;;;;;;;;;;24.50;47.08;96000.42;588576;241;65079;-68
2023/03/16 01:23:33;;;;;;;;;;;;;;;24.50;47.39;95999.61;588804;241;45235;-68
2023/03/16 01:26:01;;;;;;;;;;;;;;;24.50;47.92;96004.98;588794;241;66995;-67
2023/03/16 01:28:30;;;;;;;;;;;;;;;24.48;45.30;96007.22;588798;241;62874;-67
2023/03/16 01:31:02;;;;;;;;;;;;;;;24.47;46.31;96003.74;588718;241;66960;-67
2023/03/16 01:33:30;;;;;;;;;;;;;;;24.47;45.49;96006.43;588788;241;66974;-68
2023/03/16 01:36:00;;;;;;;;;;;;;;;24.46;45.65;96010.20;588985;240;65026;-68
2023/03/16 01:38:29;;;;;;;;;;;;;;;24.46;46.79;96012.89;591166;240;45993;-68
2023/03/16 01:40:56;;;;;;;;;;;;;;;24.46;48.09;96015.58;591332;240;67007;-68
2023/03/16 01:43:26;;;;;;;;;;;;;;;24.45;47.80;96019.38;591255;240;65099;-68
2023/03/16 01:46:03;;;;;;;;;;;;;;;24.45;47.78;96019.38;583674;240;66162;-68
2023/03/16 01:48:43;;;;;;;;;;;;;;;24.44;47.17;96028.52;591286;240;67004;-65
2023/03/16 01:51:15;;;;;;;;;;;;;;;24.44;47.05;96027.73;591238;240;62746;-65
2023/03/16 01:53:45;;;;;;;;;;;;;;;24.42;48.72;96036.09;591244;240;69182;-65
2023/03/16 01:56:14;;;;;;;;;;;;;;;24.44;46.85;96033.11;591311;240;67101;-65
2023/03/16 01:58:43;;;;;;;;;;;;;;;24.42;45.98;96036.09;591268;240;65083;-65
2023/03/16 02:01:12;;;;;;;;;;;;;;;24.42;48.32;96046.03;591259;240;64699;-65
2023/03/16 02:03:41;;;;;;;;;;;;;;;24.41;48.85;96047.14;591274;240;64850;-65
2023/03/16 02:06:13;;;;;;;;;;;;;;;24.40;46.43;96051.73;590981;240;42487;-65
2023/03/16 02:08:44;;;;;;;;;;;;;;;24.40;47.37;96049.05;591380;238;45462;-65
2023/03/16 02:11:12;;;;;;;;;;;;;;;24.40;47.85;96053.63;591240;240;65860;-65
2023/03/16 02:13:47;;;;;;;;;;;;;;;24.39;50.10;96060.91;590996;240;42510;-65
2023/03/16 02:16:18;;;;;;;;;;;;;;;24.38;47.52;96060.09;591239;240;67255;-65
2023/03/16 02:18:47;;;;;;;;;;;;;;;24.38;46.60;96072.73;591252;240;67175;-65
2023/03/16 02:21:16;;;;;;;;;;;;;;;24.36;47.50;96065.01;591091;240;62884;-65
2023/03/16 02:23:44;;;;;;;;;;;;;;;24.36;45.79;96067.70;591292;240;67416;-65
2023/03/16 02:26:18;;;;;;;;;;;;;;;24.36;48.60;96069.56;591277;239;45828;-65
2023/03/16 02:28:48;;;;;;;;;;;;;;;24.36;47.20;96080.30;591291;240;65221;-65
2023/03/16 02:31:16;;;;;;;;;;;;;;;24.36;49.18;96074.94;591105;240;67728;-65
2023/03/16 02:33:45;;;;;;;;;;;;;;;24.34;46.30;96069.89;591284;240;65084;-65
2023/03/16 02:36:15;;;;;;;;;;;;;;;24.34;46.27;96072.58;591262;240;65850;-65
2023/03/16 02:38:42;;;;;;;;;;;;;;;24.35;48.04;96084.11;591003;240;67637;-67
2023/03/16 02:41:18;;;;;;;;;;;;;;;24.34;48.85;96079.86;591261;240;67507;-67
2023/03/16 02:44:04;;;;;;;;;;;;;;;24.33;46.72;96089.78;591225;240;65650;-68
2023/03/16 02:46:36;;;;;;;;;;;;;;;24.31;47.44;96086.64;591247;240;44353;-67
2023/03/16 02:49:05;;;;;;;;;;;;;;;24.32;48.72;96090.11;591251;240;65641;-68
2023/03/16 02:51:32;;;;;;;;;;;;;;;24.31;47.45;96104.66;590804;240;63005;-67
2023/03/16 02:54:00;;;;;;;;;;;;;;;24.31;47.11;96100.06;591268;240;67578;-67
2023/03/16 02:56:29;;;;;;;;;;;;;;;24.29;48.19;96113.01;591249;240;67784;-67
2023/03/16 02:58:57;;;;;;;;;;;;;;;24.29;47.23;96107.64;591259;240;65130;-67
2023/03/16 03:01:25;;;;;;;;;;;;;;;24.29;47.46;96117.59;591247;240;66735;-64
2023/03/16 03:03:52;;;;;;;;;;;;;;;24.27;48.18;96123.27;591256;240;64692;-64
2023/03/16 03:06:20;;;;;;;;;;;;;;;24.28;48.76;96129.41;591310;240;62903;-64
2023/03/16 03:08:47;;;;;;;;;;;;;;;24.27;47.84;96131.31;591242;240;65053;-64
2023/03/16 03:11:15;;;;;;;;;;;;;;;24.27;46.61;96143.95;591234;240;64550;-67
2023/03/16 03:13:43;;;;;;;;;;;;;;;24.26;47.33;96145.07;591255;240;64923;-67
2023/03/16 03:16:13;;;;;;;;;;;;;;;24.26;47.61;96153.91;591265;240;45118;-67
2023/03/16 03:18:40;;;;;;;;;;;;;;;24.26;48.53;96153.13;591326;240;64753;-64
2023/03/16 03:21:08;;;;;;;;;;;;;;;24.25;47.84;96164.95;591268;240;63037;-67
2023/03/16 03:23:35;;;;;;;;;;;;;;;24.24;46.58;96172.22;591227;240;67249;-67
2023/03/16 03:26:03;;;;;;;;;;;;;;;24.25;47.64;96181.06;591245;240;67403;-67
2023/03/16 03:28:33;;;;;;;;;;;;;;;24.23;47.90;96176.02;591235;240;62440;-67
2023/03/16 03:31:00;;;;;;;;;;;;;;;24.21;47.08;96188.95;591303;240;65878;-67
2023/03/16 03:33:28;;;;;;;;;;;;;;;24.24;48.68;96190.23;591161;240;64888;-67
2023/03/16 03:35:57;;;;;;;;;;;;;;;24.23;48.77;96188.66;590853;240;65035;-65
2023/03/16 03:38:26;;;;;;;;;;;;;;;24.21;47.33;96188.17;588577;241;65124;-65
2023/03/16 03:40:58;;;;;;;;;;;;;;;24.19;47.82;96188.47;587878;241;67158;-65
2023/03/16 03:43:24;;;;;;;;;;;;;;;24.20;47.96;96194.62;588615;241;62930;-65
2023/03/16 03:45:53;;;;;;;;;;;;;;;24.20;50.81;96199.98;588725;241;64710;-64
2023/03/16 03:48:20;;;;;;;;;;;;;;;24.19;50.78;96201.10;588643;241;67050;-64
2023/03/16 03:50:48;;;;;;;;;;;;;;;24.18;49.85;96196.84;588700;241;65052;-64
2023/03/16 03:53:18;;;;;;;;;;;;;;;24.18;48.45;96212.95;588769;240;49125;-65
2023/03/16 03:56:03;;;;;;;;;;;;;;;24.18;48.29;96215.64;588849;241;37755;-64
2023/03/16 03:58:31;;;;;;;;;;;;;;;24.16;45.49;96215.94;588799;241;63733;-64
2023/03/16 04:00:59;;;;;;;;;;;;;;;24.17;48.64;96222.09;588686;241;68098;-64
2023/03/16 04:03:29;;;;;;;;;;;;;;;24.15;47.86;96220.52;588800;241;49975;-64
2023/03/16 04:05:57;;;;;;;;;;;;;;;24.14;47.50;96221.63;588739;241;65140;-65
2023/03/16 04:08:25;;;;;;;;;;;;;;;24.14;47.80;96220.81;588755;241;64721;-64
2023/03/16 04:10:52;;;;;;;;;;;;;;;24.14;48.63;96231.55;588693;241;67790;-65
2023/03/16 04:13:20;;;;;;;;;;;;;;;24.13;48.79;96225.41;588766;241;65781;-64
2023/03/16 04:15:49;;;;;;;;;;;;;;;24.13;49.42;96225.41;588763;241;64641;-65
2023/03/16 04:18:18;;;;;;;;;;;;;;;24.11;49.36;96224.91;588703;241;45405;-64
2023/03/16 04:20:46;;;;;;;;;;;;;;;24.10;45.96;96223.34;588739;241;65098;-64
2023/03/16 04:23:15;;;;;;;;;;;;;;;24.11;47.81;96227.59;588732;241;45926;-64
2023/03/16 04:25:44;;;;;;;;;;;;;;;24.09;47.03;96227.14;588707;241;64416;-64
2023/03/16 04:28:12;;;;;;;;;;;;;;;24.09;48.41;96219.08;588760;241;65065;-64
2023/03/16 04:30:41;;;;;;;;;;;;;;;24.10;48.62;96227.92;588753;237;64973;-64
2023/03/16 04:33:14;;;;;;;;;;;;;;;24.09;50.34;96232.50;588686;241;43194;-65
2023/03/16 04:35:41;;;;;;;;;;;;;;;24.08;49.22;96230.91;588746;237;65045;-64
2023/03/16 04:38:10;;;;;;;;;;;;;;;24.08;50.43;96236.27;588743;241;67455;-65
2023/03/16 04:40:40;;;;;;;;;;;;;;;24.08;49.20;96241.64;588622;241;44380;-64
2023/03/16 04:43:09;;;;;;;;;;;;;;;24.07;46.82;96250.02;588655;237;43694;-65
2023/03/16 04:45:37;;;;;;;;;;;;;;;24.07;50.15;96244.65;588756;237;67389;-65
2023/03/16 04:48:05;;;;;;;;;;;;;;;24.05;45.88;96252.21;588759;241;66803;-65
2023/03/16 04:50:32;;;;;;;;;;;;;;;24.05;48.03;96257.58;588737;241;65690;-65
2023/03/16 04:53:00;;;;;;;;;;;;;;;24.04;47.61;96259.48;588755;241;64406;-65
2023/03/16 04:55:28;;;;;;;;;;;;;;;24.04;48.49;96251.42;588782;241;67760;-65
2023/03/16 04:57:55;;;;;;;;;;;;;;;24.03;46.49;96257.09;588751;241;62692;-65
2023/03/16 05:00:23;;;;;;;;;;;;;;;24.03;48.65;96259.77;588714;241;67540;-65
2023/03/16 05:02:53;;;;;;;;;;;;;;;24.03;48.16;96265.14;588550;237;44281;-65
2023/03/16 05:05:22;;;;;;;;;;;;;;;24.01;47.32;96265.47;588687;241;65502;-65
2023/03/16 05:07:52;;;;;;;;;;;;;;;24.01;47.02;96265.47;583303;241;47446;-65
2023/03/16 05:10:20;;;;;;;;;;;;;;;24.01;49.71;96268.15;588723;241;64293;-65
2023/03/16 05:12:48;;;;;;;;;;;;;;;24.00;47.43;96281.86;588714;241;63830;-64
2023/03/16 05:15:15;;;;;;;;;;;;;;;24.00;48.64;96288.02;588716;241;64842;-64
2023/03/16 05:17:45;;;;;;;;;;;;;;;23.99;49.53;96283.76;588740;241;48583;-64
2023/03/16 05:20:14;;;;;;;;;;;;;;;23.99;48.71;96296.39;588731;241;63005;-64
2023/03/16 05:22:44;;;;;;;;;;;;;;;23.97;49.80;96291.32;588772;237;43880;-64
2023/03/16 05:25:20;;;;;;;;;;;;;;;23.97;49.60;96298.59;586428;241;48156;-64
2023/03/16 05:27:50;;;;;;;;;;;;;;;23.97;49.18;96303.95;588765;241;43191;-65
2023/03/16 05:30:19;;;;;;;;;;;;;;;23.97;48.86;96307.42;588545;241;43549;-66
2023/03/16 05:32:47;;;;;;;;;;;;;;;23.97;50.06;96312.00;588701;241;67497;-65
2023/03/16 05:35:15;;;;;;;;;;;;;;;23.96;48.36;96307.75;588756;237;62384;-65
2023/03/16 05:37:43;;;;;;;;;;;;;;;23.96;48.82;96313.11;590833;240;65038;-65
2023/03/16 05:40:16;;;;;;;;;;;;;;;23.96;48.63;96311.22;591236;240;45078;-64
2023/03/16 05:42:47;;;;;;;;;;;;;;;23.96;49.37;96319.27;591243;240;42411;-64
2023/03/16 05:45:15;;;;;;;;;;;;;;;23.97;50.52;96326.21;591244;240;67304;-64
2023/03/16 05:47:45;;;;;;;;;;;;;;;23.96;50.68;96321.95;590561;240;46324;-64
2023/03/16 05:50:15;;;;;;;;;;;;;;;23.97;49.56;96325.42;591240;240;65764;-64
2023/03/16 05:52:44;;;;;;;;;;;;;;;23.96;47.96;96331.90;591261;240;67353;-64
2023/03/16 05:55:14;;;;;;;;;;;;;;;23.95;49.99;96328.40;591134;236;44292;-64
2023/03/16 05:57:43;;;;;;;;;;;;;;;23.96;48.03;96335.37;591217;240;65681;-64
2023/03/16 06:00:18;;;;;;;;;;;;;;;23.96;48.32;96337.27;591278;240;64924;-64
2023/03/16 06:02:43;;;;;;;;;;;;;;;23.96;50.09;96339.95;591160;240;64901;-64
2023/03/16 06:05:11;;;;;;;;;;;;;;;23.95;47.01;96349.08;591267;237;65094;-64
2023/03/16 06:07:40;;;;;;;;;;;;;;;23.97;48.83;96347.68;591285;240;64724;-64
2023/03/16 06:10:09;;;;;;;;;;;;;;;23.98;48.50;96345.78;591248;240;67558;-64
2023/03/16 06:12:37;;;;;;;;;;;;;;;23.97;46.79;96353.05;591284;240;62930;-64
2023/03/16 06:15:10;;;;;;;;;;;;;;;23.99;50.17;96348.17;591314;240;67494;-64
2023/03/16 06:17:36;;;;;;;;;;;;;;;23.98;47.88;96351.97;591078;240;68022;-64
2023/03/16 06:20:09;;;;;;;;;;;;;;;23.99;49.56;96361.59;591244;240;65255;-64
2023/03/16 06:22:33;;;;;;;;;;;;;;;23.99;51.39;96366.17;591117;240;67314;-65
2023/03/16 06:25:01;;;;;;;;;;;;;;;23.99;48.80;96372.33;591235;240;67263;-64
2023/03/16 06:27:29;;;;;;;;;;;;;;;23.99;47.56;96366.17;591309;240;65009;-64
2023/03/16 06:30:14;;;;;;;;;;;;;;;24.01;49.32;96375.51;591183;240;46363;-63
2023/03/16 06:32:44;;;;;;;;;;;;;;;24.01;47.14;96380.05;591248;240;67048;-63
2023/03/16 06:35:12;;;;;;;;;;;;;;;24.01;49.32;96383.56;583985;240;62817;-65
2023/03/16 06:37:41;;;;;;;;;;;;;;;24.02;47.80;96387.03;589119;237;48846;-65
2023/03/16 06:40:16;;;;;;;;;;;;;;;24.01;46.29;96386.24;585334;241;48130;-66
2023/03/16 06:42:44;;;;;;;;;;;;;;;24.02;48.04;96393.19;588788;241;63228;-66
2023/03/16 06:45:15;;;;;;;;;;;;;;;24.03;46.03;96402.81;588741;241;65764;-65
2023/03/16 06:47:45;;;;;;;;;;;;;;;24.04;48.11;96400.95;588680;241;64508;-65
2023/03/16 06:50:13;;;;;;;;;;;;;;;24.03;43.86;96400.12;588752;241;64963;-65
2023/03/16 06:52:41;;;;;;;;;;;;;;;24.04;47.86;96401.73;588739;241;65106;-65
2023/03/16 06:55:11;;;;;;;;;;;;;;;24.05;47.27;96399.84;588737;241;67046;-65
2023/03/16 06:57:43;;;;;;;;;;;;;;;24.06;45.50;96412.15;588814;241;65069;-65
2023/03/16 07:00:14;;;;;;;;;;;;;;;24.07;45.78;96414.54;588716;241;67674;-65
2023/03/16 07:02:42;;;;;;;;;;;;;;;24.09;47.40;96419.59;588694;241;65674;-73
2023/03/16 07:05:12;;;;;;;;;;;;;;;24.08;48.01;96426.85;588751;241;65046;-64
2023/03/16 07:07:41;;;;;;;;;;;;;;;24.11;39.95;96438.88;588697;237;67268;-64
2023/03/16 07:10:13;;;;;;;;;;;;;;;24.12;45.74;96440.48;588772;241;65396;-64
2023/03/16 07:12:41;;;;;;;;;;;;;;;24.12;46.34;96443.95;588761;241;65067;-64
2023/03/16 07:15:09;;;;;;;;;;;;;;;24.13;46.67;96444.73;588719;241;67893;-64
2023/03/16 07:17:37;;;;;;;;;;;;;;;24.13;47.40;96442.84;588536;237;65015;-64
2023/03/16 07:20:09;;;;;;;;;;;;;;;24.14;45.47;96452.50;588661;241;65270;-62
2023/03/16 07:22:35;;;;;;;;;;;;;;;24.15;45.80;96448.70;588659;241;67257;-64
2023/03/16 07:25:03;;;;;;;;;;;;;;;24.15;46.75;96450.60;588760;241;64987;-69
2023/03/16 07:27:31;;;;;;;;;;;;;;;24.17;46.65;96452.97;588766;241;65044;-61
2023/03/16 07:30:00;;;;;;;;;;;;;;;24.18;47.41;96451.89;588330;241;67603;-60
2023/03/16 07:32:28;;;;;;;;;;;;;;;24.18;46.21;96457.25;588753;241;67496;-62
2023/03/16 07:34:57;;;;;;;;;;;;;;;24.17;47.09;96458.34;588691;241;63060;-62
2023/03/16 07:37:26;;;;;;;;;;;;;;;24.18;48.02;96458.05;586679;239;64300;-63
2023/03/16 07:39:55;;;;;;;;;;;;;;;24.18;45.58;96465.31;593185;238;45498;-63
2023/03/16 07:42:22;;;;;;;;;;;;;;;24.18;47.84;96468.78;592481;239;65241;-65
2023/03/16 07:44:54;;;;;;;;;;;;;;;24.19;47.76;96474.94;593033;239;45474;-65
2023/03/16 07:47:23;;;;;;;;;;;;;;;24.20;46.57;96479.20;593491;236;64697;-63
2023/03/16 07:49:51;;;;;;;;;;;;;;;24.21;46.25;96475.44;593985;239;65176;-63
2023/03/16 07:52:19;;;;;;;;;;;;;;;24.21;46.92;96475.44;594090;239;64667;-62
2023/03/16 07:54:48;;;;;;;;;;;;;;;24.23;44.81;96478.62;594171;239;67972;-62
2023/03/16 07:57:16;;;;;;;;;;;;;;;24.24;46.28;96480.98;594155;239;63075;-62
2023/03/16 07:59:44;;;;;;;;;;;;;;;24.25;45.41;96484.45;594145;239;67756;-63
2023/03/16 08:02:14;;;;;;;;;;;;;;;24.26;47.33;96488.75;594244;239;43614;-62
2023/03/16 08:04:42;;;;;;;;;;;;;;;24.25;45.65;96493.30;594200;238;65012;-62
2023/03/16 08:07:11;;;;;;;;;;;;;;;24.26;46.26;96494.91;594219;239;65144;-63
2023/03/16 08:09:43;;;;;;;;;;;;;;;24.28;44.80;96498.08;593755;239;44257;-63
2023/03/16 08:12:11;;;;;;;;;;;;;;;24.28;45.56;96494.58;594197;239;63834;-63
2023/03/16 08:14:44;;;;;;;;;;;;;;;24.29;47.08;96494.29;594162;239;65173;-63
2023/03/16 08:17:12;;;;;;;;;;;;;;;24.30;46.47;96503.14;593989;239;47897;-63
2023/03/16 08:19:41;;;;;;;;;;;;;;;24.30;45.93;96508.50;594194;239;64887;-63
2023/03/16 08:22:11;;;;;;;;;;;;;;;24.31;46.21;96502.05;594248;239;48508;-63
2023/03/16 08:24:41;;;;;;;;;;;;;;;24.32;41.12;96498.27;594129;239;44680;-67
2023/03/16 08:27:09;;;;;;;;;;;;;;;24.33;44.49;96508.68;594161;239;62567;-70
2023/03/16 08:29:39;;;;;;;;;;;;;;;24.34;45.24;96512.19;594150;239;67919;-62
2023/03/16 08:32:08;;;;;;;;;;;;;;;24.36;44.98;96504.59;586967;239;66117;-62
2023/03/16 08:34:39;;;;;;;;;;;;;;;24.36;47.54;96513.47;594111;239;41624;-64
2023/03/16 08:37:08;;;;;;;;;;;;;;;24.36;46.76;96509.97;591004;239;66942;-63
2023/03/16 08:39:37;;;;;;;;;;;;;;;24.35;46.27;96519.92;588421;241;66886;-63
2023/03/16 08:42:06;;;;;;;;;;;;;;;24.36;47.87;96518.84;588536;241;43983;-62
2023/03/16 08:44:38;;;;;;;;;;;;;;;24.36;46.12;96520.70;588541;241;43935;-64
2023/03/16 08:47:06;;;;;;;;;;;;;;;24.36;46.59;96521.52;588559;241;64805;-63
2023/03/16 08:49:34;;;;;;;;;;;;;;;24.36;44.78;96529.58;588499;241;66152;-64
2023/03/16 08:52:04;;;;;;;;;;;;;;;24.37;43.95;96533.05;588288;241;49491;-63
2023/03/16 08:54:32;;;;;;;;;;;;;;;24.39;45.15;96533.55;588515;241;64563;-70
2023/03/16 08:57:00;;;;;;;;;;;;;;;24.40;44.50;96528.97;588588;241;64977;-63
2023/03/16 08:59:28;;;;;;;;;;;;;;;24.40;44.67;96535.13;588602;241;66916;-64
2023/03/16 09:01:55;;;;;;;;;;;;;;;24.42;46.15;96538.31;588533;241;64748;-64
2023/03/16 09:04:23;;;;;;;;;;;;;;;24.42;43.92;96543.68;588590;241;63005;-63
2023/03/16 09:06:50;;;;;;;;;;;;;;;24.43;46.73;96537.20;588538;241;65137;-68
2023/03/16 09:09:18;;;;;;;;;;;;;;;24.44;45.58;96538.02;588531;241;67069;-69
2023/03/16 09:11:46;;;;;;;;;;;;;;;24.44;45.83;96546.87;588607;241;64905;-68
2023/03/16 09:14:14;;;;;;;;;;;;;;;24.44;44.50;96543.39;588528;241;65132;-70
2023/03/16 09:16:43;;;;;;;;;;;;;;;24.44;45.64;96544.18;588551;241;64946;-69
2023/03/16 09:19:10;;;;;;;;;;;;;;;24.45;45.81;96542.31;588577;241;65042;-68
2023/03/16 09:21:38;;;;;;;;;;;;;;;24.45;45.97;96545.00;588416;241;67085;-69
2023/03/16 09:24:07;;;;;;;;;;;;;;;24.45;43.81;96539.63;588615;239;67265;-71
2023/03/16 09:26:36;;;;;;;;;;;;;;;24.46;43.73;96546.58;588606;241;65814;-71
2023/03/16 09:29:05;;;;;;;;;;;;;;;24.47;44.17;96553.52;588487;241;67012;-71
2023/03/16 09:31:33;;;;;;;;;;;;;;;24.48;46.71;96553.23;588621;241;64276;-71
2023/03/16 09:34:00;;;;;;;;;;;;;;;24.48;45.64;96552.44;588565;241;64920;-72
2023/03/16 09:36:28;;;;;;;;;;;;;;;24.47;45.80;96551.66;590078;239;67248;-70
2023/03/16 09:38:55;;;;;;;;;;;;;;;24.48;45.75;96555.92;594266;239;67211;-72
2023/03/16 09:41:25;;;;;;;;;;;;;;;24.49;45.91;96559.39;594206;238;64985;-67
2023/03/16 09:43:57;;;;;;;;;;;;;;;24.48;45.70;96561.30;591941;239;67343;-68
2023/03/16 09:46:28;;;;;;;;;;;;;;;24.49;45.14;96565.55;593979;239;65011;-69
2023/03/16 09:48:57;;;;;;;;;;;;;;;24.50;43.82;96567.16;594190;239;65137;-69
2023/03/16 09:51:38;;;;;;;;;;;;;;;24.50;42.72;96563.66;594179;239;67290;-69
2023/03/16 09:54:07;;;;;;;;;;;;;;;24.49;45.25;96568.23;594078;239;64758;-68
2023/03/16 09:56:39;;;;;;;;;;;;;;;24.49;45.41;96565.55;593684;236;62768;-72
2023/03/16 09:59:12;;;;;;;;;;;;;;;24.49;45.63;96565.55;600726;236;67003;-69
2023/03/16 10:01:57;;;;;;;;;;;;;;;24.51;36.52;96573.32;600771;236;67053;-68
2023/03/16 10:04:26;;;;;;;;;;;;;;;24.57;43.89;96564.83;585433;241;65049;-68
2023/03/16 10:07:01;;;;;;;;;;;;;;;24.59;41.13;96576.06;595737;236;65266;-65
2023/03/16 10:09:37;;;;;;;;;;;;;;;24.60;41.99;96574.17;600841;236;64913;-65
2023/03/16 10:12:07;;;;;;;;;;;;;;;24.64;41.68;96585.13;600798;236;44624;-67
2023/03/16 10:14:37;;;;;;;;;;;;;;;24.66;43.73;96572.16;600773;236;65078;-66
2023/03/16 10:17:18;;;;;;;;;;;;;;;24.67;41.42;96579.92;600831;236;64881;-67
2023/03/16 10:20:01;;;;;;;;;;;;;;;24.70;39.39;96586.58;600736;236;65086;-68
2023/03/16 10:22:28;;;;;;;;;;;;;;;24.73;40.73;96585.97;600411;236;67248;-68
2023/03/16 10:24:57;;;;;;;;;;;;;;;24.74;39.45;96582.95;600778;236;67041;-67
2023/03/16 10:27:26;;;;;;;;;;;;;;;24.76;40.98;96588.04;600737;236;65100;-69
2023/03/16 10:29:57;;;;;;;;;;;;;;;24.72;43.73;96581.70;600758;236;69436;-68
2023/03/16 10:32:27;;;;;;;;;;;;;;;24.70;43.47;96594.64;600729;236;67013;-67
2023/03/16 10:34:55;;;;;;;;;;;;;;;24.68;42.58;96580.71;600725;236;63778;-67
2023/03/16 10:37:25;;;;;;;;;;;;;;;24.68;43.23;96586.09;598116;236;64952;-67
2023/03/16 10:39:53;;;;;;;;;;;;;;;24.68;43.77;96586.87;598160;237;66933;-67
2023/03/16 10:42:21;;;;;;;;;;;;;;;24.69;44.02;96587.66;598007;237;65015;-67
2023/03/16 10:44:48;;;;;;;;;;;;;;;24.69;43.05;96582.29;598141;237;67323;-67
2023/03/16 10:47:21;;;;;;;;;;;;;;;24.69;42.75;96590.34;598105;237;66815;-67
2023/03/16 10:49:50;;;;;;;;;;;;;;;24.69;43.38;96588.48;597378;237;65077;-66
2023/03/16 10:52:22;;;;;;;;;;;;;;;24.69;44.83;96580.42;585807;237;67301;-66
2023/03/16 10:54:51;;;;;;;;;;;;;;;24.70;42.02;96586.58;582292;243;67388;-66
2023/03/16 10:57:21;;;;;;;;;;;;;;;24.71;44.11;96590.84;582285;243;65107;-67
2023/03/16 10:59:50;;;;;;;;;;;;;;;24.72;43.01;96595.14;582284;243;67342;-66
2023/03/16 11:02:21;;;;;;;;;;;;;;;24.72;44.35;96595.92;582010;243;67123;-67
2023/03/16 11:04:49;;;;;;;;;;;;;;;24.72;43.93;96584.39;582277;243;62879;-68
2023/03/16 11:07:18;;;;;;;;;;;;;;;24.72;37.33;96592.45;582306;243;67395;-67
2023/03/16 11:09:46;;;;;;;;;;;;;;;24.74;39.83;96591.02;582233;243;67059;-67
2023/03/16 11:12:21;;;;;;;;;;;;;;;24.75;43.35;96592.63;582279;243;45070;-67
2023/03/16 11:14:48;;;;;;;;;;;;;;;24.74;43.11;96587.55;581205;243;67015;-67
2023/03/16 11:17:18;;;;;;;;;;;;;;;24.74;44.18;96600.98;582252;243;67025;-67
2023/03/16 11:19:50;;;;;;;;;;;;;;;24.75;41.24;96591.84;582214;243;65140;-66
2023/03/16 11:22:23;;;;;;;;;;;;;;;24.74;43.74;96593.70;582315;243;67332;-67
2023/03/16 11:24:55;;;;;;;;;;;;;;;24.75;41.32;96607.96;582258;243;67064;-66
2023/03/16 11:27:24;;;;;;;;;;;;;;;24.77;42.72;96594.99;582125;243;65057;-67
2023/03/16 11:30:05;;;;;;;;;;;;;;;24.78;43.50;96596.59;582254;243;64819;-67
2023/03/16 11:32:34;;;;;;;;;;;;;;;24.77;42.98;96594.99;582285;243;67119;-66
2023/03/16 11:35:06;;;;;;;;;;;;;;;24.78;43.62;96593.91;582246;243;64968;-66
2023/03/16 11:37:42;;;;;;;;;;;;;;;24.78;44.74;96597.39;583981;242;67296;-68
2023/03/16 11:40:14;;;;;;;;;;;;;;;24.79;43.38;96600.86;584870;240;67169;-67
2023/03/16 11:42:43;;;;;;;;;;;;;;;24.80;42.35;96607.84;578931;242;65225;-66
2023/03/16 11:45:12;;;;;;;;;;;;;;;24.82;43.56;96597.56;584491;242;67375;-67
2023/03/16 11:47:41;;;;;;;;;;;;;;;24.81;43.20;96602.14;584530;242;67146;-66
2023/03/16 11:50:19;;;;;;;;;;;;;;;24.84;44.57;96599.95;583800;242;65101;-66
2023/03/16 11:52:57;;;;;;;;;;;;;;;24.83;41.61;96609.92;584761;242;67277;-67
2023/03/16 11:55:35;;;;;;;;;;;;;;;24.85;43.80;96607.70;584683;242;67111;-69
2023/03/16 11:58:04;;;;;;;;;;;;;;;24.86;44.15;96613.89;584788;242;65073;-68
2023/03/16 12:00:52;;;;;;;;;;;;;;;24.86;44.20;96613.89;584417;242;67322;-68
2023/03/16 12:03:36;;;;;;;;;;;;;;;24.88;44.33;96607.11;584863;242;66818;-67
2023/03/16 12:06:06;;;;;;;;;;;;;;;24.88;42.61;96617.86;584504;242;63085;-68
2023/03/16 12:08:35;;;;;;;;;;;;;;;24.90;43.02;96620.23;583351;242;67286;-67
2023/03/16 12:11:04;;;;;;;;;;;;;;;24.91;43.82;96621.80;571378;242;67350;-68
2023/03/16 12:13:37;;;;;;;;;;;;;;;24.91;42.51;96622.63;584811;242;63887;-68
2023/03/16 12:16:06;;;;;;;;;;;;;;;24.92;42.74;96621.52;584750;242;67351;-67
2023/03/16 12:18:44;;;;;;;;;;;;;;;24.92;43.78;96623.41;584831;242;67158;-67
2023/03/16 12:21:19;;;;;;;;;;;;;;;24.95;42.90;96628.17;584476;242;62768;-69
2023/03/16 12:23:54;;;;;;;;;;;;;;;24.96;43.52;96624.37;584836;242;65206;-68
2023/03/16 12:26:23;;;;;;;;;;;;;;;24.96;42.51;96625.19;584385;242;67165;-69
2023/03/16 12:28:51;;;;;;;;;;;;;;;24.97;41.12;96624.08;584799;242;64942;-68
2023/03/16 12:31:20;;;;;;;;;;;;;;;24.99;41.92;96632.64;584789;242;66902;-68
2023/03/16 12:33:51;;;;;;;;;;;;;;;24.99;43.16;96635.33;584094;242;67252;-69
2023/03/16 12:36:20;;;;;;;;;;;;;;;24.99;41.79;96629.95;584793;242;65078;-67
2023/03/16 12:38:49;;;;;;;;;;;;;;;25.06;36.64;96634.89;584373;242;67499;-68
2023/03/16 12:41:22;;;;;;;;;;;;;;;25.07;36.65;96636.46;584713;242;67023;-67
2023/03/16 12:43:56;;;;;;;;;;;;;;;25.10;39.07;96645.81;584786;242;65136;-66
2023/03/16 12:46:29;;;;;;;;;;;;;;;25.09;42.32;96650.40;584863;242;67065;-69
2023/03/16 12:48:59;;;;;;;;;;;;;;;25.10;39.59;96645.81;584816;242;67012;-68
2023/03/16 12:51:37;;;;;;;;;;;;;;;25.10;41.17;96646.63;584884;242;63077;-67
2023/03/16 12:54:06;;;;;;;;;;;;;;;25.10;39.98;96649.32;584878;242;64598;-66
2023/03/16 12:56:37;;;;;;;;;;;;;;;25.11;39.44;96650.11;584774;242;47968;-67
2023/03/16 12:59:06;;;;;;;;;;;;;;;25.13;39.79;96655.98;584630;242;65072;-65
2023/03/16 13:01:41;;;;;;;;;;;;;;;25.13;39.03;96650.60;584754;242;64790;-66